Bei Facebook empfehlenBei Twitter postenGoogle plusPinterest

Das Wetter im Erzgebirge am 19.06.2016

Wetter und Klima am 19.06.2016 Holzhau im Erzgebirge (630m ü.NN)
Letzte gemessene Temperatur und Uhrzeit der Messung23:45:00 Uhr13.00 °C
Temperatur (Maximum / Höchstwert) und Uhrzeit der Messung16:30:00 Uhr21.30 °C
Temperatur (Minimum / Tiefstwert) und Uhrzeit der Messung04:45:005.90 °C
Errechneter Absolutwert der Temperaturschwankungen zwischen Tmin und Tmax des Tages15.40 K
Errechnete Tagesmitteltemperatur13.85833 °C
Gesamt - Niederschlag des Tages (in flüssiger Form)0.00 Liter / m²
Luftdruck (Maximum / Höchstwert) und Zeitpunkt der Messung23:45:00 Uhr1019.80 hPa
Luftdruck (Minimum / Tiefstwert) und Zeitpunkt der Messung00:45:00 Uhr1015.10 hPa
Errechneter Absolutwert der Luftdruckschwankungen des Tages4.70 hPa
Höchste gemessene Windgeschwindigkeit und Uhrzeit der Messung23:45:00 Uhr0.00 km/h
Errechnete Windhäufigkeit in Relation zu den Messwerten des Tages0.00000 %
Niedrigste Windkühle (Windchill) und Zeitpunkt der Messung04:45:00 Uhr5.90 °C
Taupunkt (Maximum / Höchstwert) und Uhrzeit der Messung09:45:00 Uhr15.60 °C
Taupunkt (Minimum / Tiefstwert) und Uhrzeit der Messung04:45:005.00 °C
Anzahl der automatisch eingelesenen Messwerte 96

Detaillierte Wetter- und Klima- Messwerte für den 19.06.2016 in Holzhau im Erzgebirge (630m ü.NN)
ZeitTemperaturLuftdruckRel. LuftfeuchteWindWindrichtungWindchillTaupunktNiederschlag l/m²
23:45:0013.00 °C1019.80 hPa87.00 %10.90 °C 
23:30:0013.20 °C1019.60 hPa86.00 %10.90 °C 
23:15:0013.30 °C1019.70 hPa86.00 %11.00 °C 
23:00:0013.50 °C1019.60 hPa85.00 %11.00 °C 
22:45:0013.60 °C1019.50 hPa85.00 %11.10 °C 
22:30:0013.60 °C1019.40 hPa85.00 %11.10 °C 
22:15:0013.80 °C1019.30 hPa84.00 %11.10 °C 
22:00:0013.90 °C1019.20 hPa83.00 %11.10 °C 
21:45:0013.90 °C1019.10 hPa81.00 %10.70 °C 
21:30:0013.90 °C1019.10 hPa80.00 %10.50 °C 
21:15:0014.10 °C1018.70 hPa79.00 %10.50 °C 
21:00:0014.40 °C1018.50 hPa78.00 %10.60 °C 
20:45:0014.70 °C1018.40 hPa77.00 %10.70 °C 
20:30:0014.90 °C1018.60 hPa76.00 %10.70 °C 
20:15:0015.00 °C1018.40 hPa75.00 %10.60 °C 
20:00:0015.40 °C1018.50 hPa75.00 %11.00 °C 
19:45:0015.90 °C1018.30 hPa74.00 %11.30 °C 
19:30:0016.60 °C1018.30 hPa72.00 %11.50 °C 
19:15:0017.10 °C1018.10 hPa71.00 %11.80 °C 
19:00:0017.50 °C1018.20 hPa70.00 %12.00 °C 
18:45:0017.90 °C1018.00 hPa69.00 %12.10 °C 
18:30:0017.70 °C1018.00 hPa69.00 %11.90 °C 
18:15:0017.90 °C1017.90 hPa69.00 %12.10 °C 
18:00:0018.00 °C1018.00 hPa66.00 %11.60 °C 
17:45:0018.80 °C1018.10 hPa63.00 %11.60 °C 
17:30:0019.60 °C1018.00 hPa62.00 %12.10 °C 
17:15:0020.10 °C1018.10 hPa62.00 %12.60 °C 
17:00:0020.30 °C1018.00 hPa62.00 %12.80 °C 
16:45:0020.90 °C1018.00 hPa61.00 %13.10 °C 
16:30:0021.30 °C1017.90 hPa64.00 %14.20 °C 
16:15:0020.80 °C1017.70 hPa63.00 %13.50 °C 
16:00:0020.80 °C1017.90 hPa64.00 %13.70 °C 
15:45:0019.30 °C1017.90 hPa66.00 %12.80 °C 
15:30:0018.90 °C1017.80 hPa66.00 %12.40 °C 
15:15:0018.40 °C1017.90 hPa66.00 %11.90 °C 
15:00:0019.30 °C1017.90 hPa65.00 %12.60 °C 
14:45:0019.60 °C1017.80 hPa65.00 %12.80 °C 
14:30:0019.90 °C1017.90 hPa65.00 %13.10 °C 
14:15:0019.90 °C1017.80 hPa68.00 %13.80 °C 
14:00:0019.50 °C1017.80 hPa67.00 %13.20 °C 
13:45:0019.50 °C1017.90 hPa71.00 %14.10 °C 
13:30:0017.80 °C1018.10 hPa72.00 %12.70 °C 
13:15:0017.60 °C1018.10 hPa70.00 %12.10 °C 
13:00:0018.30 °C1018.00 hPa69.00 %12.50 °C 
12:45:0018.80 °C1018.10 hPa69.00 %13.00 °C 
12:30:0019.80 °C1018.10 hPa69.00 %14.00 °C 
12:15:0019.40 °C1018.20 hPa69.00 %13.60 °C 
12:00:0019.60 °C1017.90 hPa70.00 %14.00 °C 
11:45:0019.60 °C1017.90 hPa72.00 %14.40 °C 
11:30:0019.20 °C1018.00 hPa76.00 %14.90 °C 
11:15:0017.40 °C1018.00 hPa78.00 %13.50 °C 
11:00:0017.60 °C1017.90 hPa78.00 %13.70 °C 
10:45:0017.40 °C1017.90 hPa82.00 %14.30 °C 
10:30:0016.80 °C1018.00 hPa84.00 %14.10 °C 
10:15:0017.30 °C1017.70 hPa88.00 %15.30 °C 
10:00:0016.50 °C1017.80 hPa91.00 %15.00 °C 
09:45:0016.60 °C1017.60 hPa94.00 %15.60 °C 
09:30:0016.10 °C1017.70 hPa95.00 %15.30 °C 
09:15:0014.50 °C1017.60 hPa95.00 %13.70 °C 
09:00:0013.50 °C1017.70 hPa95.00 %12.70 °C 
08:45:0012.60 °C1017.50 hPa96.00 %12.00 °C 
08:30:0012.10 °C1017.50 hPa96.00 %11.50 °C 
08:15:0011.90 °C1017.40 hPa96.00 %11.30 °C 
08:00:0011.50 °C1017.20 hPa96.00 %10.90 °C 
07:45:0010.90 °C1017.20 hPa95.00 %10.10 °C 
07:30:0010.30 °C1017.10 hPa95.00 %9.50 °C 
07:15:009.80 °C1017.10 hPa95.00 %9.00 °C 
07:00:009.30 °C1017.00 hPa95.00 %8.50 °C 
06:45:008.50 °C1016.90 hPa95.00 %7.70 °C 
06:30:007.70 °C1016.90 hPa95.00 %7.00 °C 
06:15:007.20 °C1016.80 hPa94.00 %6.30 °C 
06:00:007.10 °C1016.50 hPa94.00 %6.20 °C 
05:45:006.90 °C1016.20 hPa94.00 %6.00 °C 
05:30:006.90 °C1016.10 hPa94.00 %6.00 °C 
05:15:006.80 °C1016.10 hPa94.00 %5.90 °C 
05:00:006.50 °C1016.00 hPa94.00 %5.60 °C 
04:45:005.90 °C1015.90 hPa94.00 %5.00 °C 
04:30:006.00 °C1015.70 hPa93.00 %5.00 °C 
04:15:006.20 °C1015.60 hPa93.00 %5.20 °C 
04:00:006.40 °C1015.40 hPa94.00 %5.50 °C 
03:45:006.50 °C1015.60 hPa94.00 %5.60 °C 
03:30:006.80 °C1015.70 hPa93.00 %5.70 °C 
03:15:006.90 °C1015.50 hPa93.00 %5.80 °C 
03:00:007.10 °C1015.30 hPa93.00 %6.00 °C 
02:45:007.30 °C1015.30 hPa93.00 %6.20 °C 
02:30:007.50 °C1015.30 hPa93.00 %6.40 °C 
02:15:007.60 °C1015.30 hPa93.00 %6.50 °C 
02:00:007.90 °C1015.30 hPa93.00 %6.80 °C 
01:45:008.20 °C1015.30 hPa93.00 %7.10 °C 
01:30:008.30 °C1015.30 hPa93.00 %7.20 °C 
01:15:008.60 °C1015.20 hPa92.00 %7.40 °C 
01:00:008.50 °C1015.20 hPa92.00 %7.30 °C 
00:45:008.60 °C1015.10 hPa92.00 %7.40 °C 
00:30:008.70 °C1015.20 hPa91.00 %7.30 °C 
00:15:008.90 °C1015.10 hPa92.00 %7.70 °C 
00:00:009.00 °C1015.20 hPa91.00 %7.60 °C 

Permanenter Link zu dieser Seite: Wetter im Erzgebirge am 19.06.2016
Performance-Info: Die Erstellung der Seite / Statistik(en) / Tabelle(n) erforderte 5 Datenbankserver-Abfrage(n) und dauerte 101 Millisekunden. (Dieser Messwert ist von der Gesamt-Auslastung des Servers abhängig.)
Erzgebirge - Wetter | Erzgebirge - Wetter (Mobilgeräte) | Komplette Klimadatenbank